sensor_id;sensor_type;location;lat;lon;timestamp;pressure;altitude;pressure_sealevel;temperature;humidity
72308;BME280;60257;42.638;23.376;2023-05-25T00:00:56;94559.44;;;14.99;70.76
72308;BME280;60257;42.638;23.376;2023-05-25T00:03:21;94573.25;;;15.03;70.37
72308;BME280;60257;42.638;23.376;2023-05-25T00:05:47;94566.53;;;15.00;70.70
72308;BME280;60257;42.638;23.376;2023-05-25T00:08:13;94563.19;;;14.84;70.52
72308;BME280;60257;42.638;23.376;2023-05-25T00:10:38;94577.88;;;14.92;70.87
72308;BME280;60257;42.638;23.376;2023-05-25T00:13:04;94577.09;;;14.91;70.61
72308;BME280;60257;42.638;23.376;2023-05-25T00:15:29;94573.88;;;14.86;70.69
72308;BME280;60257;42.638;23.376;2023-05-25T00:17:55;94571.13;;;14.86;70.82
72308;BME280;60257;42.638;23.376;2023-05-25T00:20:20;94569.03;;;14.79;71.39
72308;BME280;60257;42.638;23.376;2023-05-25T00:22:45;94565.88;;;14.77;71.86
72308;BME280;60257;42.638;23.376;2023-05-25T00:25:11;94578.09;;;14.76;72.09
72308;BME280;60257;42.638;23.376;2023-05-25T00:27:37;94585.50;;;14.72;72.27
72308;BME280;60257;42.638;23.376;2023-05-25T00:30:02;94585.91;;;14.71;72.35
72308;BME280;60257;42.638;23.376;2023-05-25T00:32:28;94580.66;;;14.62;72.23
72308;BME280;60257;42.638;23.376;2023-05-25T00:34:54;94581.47;;;14.62;72.46
72308;BME280;60257;42.638;23.376;2023-05-25T00:37:19;94582.63;;;14.61;73.12
72308;BME280;60257;42.638;23.376;2023-05-25T00:39:45;94586.50;;;14.57;73.15
72308;BME280;60257;42.638;23.376;2023-05-25T00:42:11;94587.56;;;14.49;73.08
72308;BME280;60257;42.638;23.376;2023-05-25T00:44:36;94582.31;;;14.40;73.38
72308;BME280;60257;42.638;23.376;2023-05-25T00:47:02;94579.88;;;14.35;73.29
72308;BME280;60257;42.638;23.376;2023-05-25T00:49:30;94592.88;;;14.35;73.19
72308;BME280;60257;42.638;23.376;2023-05-25T00:51:56;94587.31;;;14.31;72.61
72308;BME280;60257;42.638;23.376;2023-05-25T00:54:22;94568.19;;;14.19;72.55
72308;BME280;60257;42.638;23.376;2023-05-25T00:56:55;94583.69;;;14.27;72.45
72308;BME280;60257;42.638;23.376;2023-05-25T00:59:43;94593.13;;;14.26;72.55
72308;BME280;60257;42.638;23.376;2023-05-25T01:02:10;94591.94;;;14.23;72.47
72308;BME280;60257;42.638;23.376;2023-05-25T01:04:40;94591.88;;;14.20;72.72
72308;BME280;60257;42.638;23.376;2023-05-25T01:07:10;94587.16;;;14.20;72.75
72308;BME280;60257;42.638;23.376;2023-05-25T01:09:43;94595.75;;;14.15;73.06
72308;BME280;60257;42.638;23.376;2023-05-25T01:12:10;94601.25;;;14.15;73.03
72308;BME280;60257;42.638;23.376;2023-05-25T01:14:38;94593.28;;;14.10;72.85
72308;BME280;60257;42.638;23.376;2023-05-25T01:17:07;94604.72;;;14.09;72.89
72308;BME280;60257;42.638;23.376;2023-05-25T01:19:34;94601.44;;;14.03;73.19
72308;BME280;60257;42.638;23.376;2023-05-25T01:24:55;94598.38;;;13.82;73.91
72308;BME280;60257;42.638;23.376;2023-05-25T01:30:11;94588.50;;;13.81;73.90
72308;BME280;60257;42.638;23.376;2023-05-25T01:32:40;94595.53;;;13.78;73.76
72308;BME280;60257;42.638;23.376;2023-05-25T01:35:07;94590.94;;;13.86;73.82
72308;BME280;60257;42.638;23.376;2023-05-25T01:37:34;94585.50;;;13.90;73.88
72308;BME280;60257;42.638;23.376;2023-05-25T01:40:02;94577.16;;;13.86;74.22
72308;BME280;60257;42.638;23.376;2023-05-25T01:42:29;94583.16;;;13.92;74.01
72308;BME280;60257;42.638;23.376;2023-05-25T01:44:55;94575.59;;;13.85;74.40
72308;BME280;60257;42.638;23.376;2023-05-25T01:47:29;94572.75;;;13.81;74.67
72308;BME280;60257;42.638;23.376;2023-05-25T01:52:44;94561.69;;;13.78;75.19
72308;BME280;60257;42.638;23.376;2023-05-25T01:55:14;94572.28;;;13.76;75.08
72308;BME280;60257;42.638;23.376;2023-05-25T01:57:45;94571.41;;;13.72;75.44
72308;BME280;60257;42.638;23.376;2023-05-25T02:00:13;94556.69;;;13.61;75.66
72308;BME280;60257;42.638;23.376;2023-05-25T02:02:41;94577.69;;;13.69;75.60
72308;BME280;60257;42.638;23.376;2023-05-25T02:05:09;94581.03;;;13.81;75.53
72308;BME280;60257;42.638;23.376;2023-05-25T02:07:35;94569.53;;;13.76;74.43
72308;BME280;60257;42.638;23.376;2023-05-25T02:10:01;94589.38;;;13.62;74.49
72308;BME280;60257;42.638;23.376;2023-05-25T02:12:27;94580.06;;;13.47;75.60
72308;BME280;60257;42.638;23.376;2023-05-25T02:14:52;94578.41;;;13.43;75.91
72308;BME280;60257;42.638;23.376;2023-05-25T02:17:18;94586.25;;;13.41;75.84
72308;BME280;60257;42.638;23.376;2023-05-25T02:19:44;94588.59;;;13.39;75.17
72308;BME280;60257;42.638;23.376;2023-05-25T02:22:10;94588.88;;;13.34;75.08
72308;BME280;60257;42.638;23.376;2023-05-25T02:24:36;94582.78;;;13.25;74.71
72308;BME280;60257;42.638;23.376;2023-05-25T02:27:03;94586.00;;;13.27;74.48
72308;BME280;60257;42.638;23.376;2023-05-25T02:29:28;94585.94;;;13.23;74.44
72308;BME280;60257;42.638;23.376;2023-05-25T02:31:54;94594.19;;;13.23;74.51
72308;BME280;60257;42.638;23.376;2023-05-25T02:34:20;94600.06;;;13.22;74.16
72308;BME280;60257;42.638;23.376;2023-05-25T02:36:46;94596.94;;;13.23;74.00
72308;BME280;60257;42.638;23.376;2023-05-25T02:39:11;94613.88;;;13.25;74.15
72308;BME280;60257;42.638;23.376;2023-05-25T02:41:37;94600.50;;;13.24;74.11
72308;BME280;60257;42.638;23.376;2023-05-25T02:44:03;94608.75;;;13.24;73.40
72308;BME280;60257;42.638;23.376;2023-05-25T02:46:28;94623.75;;;13.26;73.46
72308;BME280;60257;42.638;23.376;2023-05-25T02:48:54;94621.78;;;13.27;73.58
72308;BME280;60257;42.638;23.376;2023-05-25T02:51:19;94623.75;;;13.26;73.37
72308;BME280;60257;42.638;23.376;2023-05-25T02:53:44;94618.06;;;13.16;73.89
72308;BME280;60257;42.638;23.376;2023-05-25T02:56:10;94625.94;;;13.17;73.83
72308;BME280;60257;42.638;23.376;2023-05-25T02:58:36;94632.22;;;13.18;73.73
72308;BME280;60257;42.638;23.376;2023-05-25T03:01:02;94633.03;;;13.18;73.54
72308;BME280;60257;42.638;23.376;2023-05-25T03:03:29;94630.22;;;13.15;73.99
72308;BME280;60257;42.638;23.376;2023-05-25T03:05:55;94627.81;;;13.13;73.84
72308;BME280;60257;42.638;23.376;2023-05-25T03:08:21;94634.94;;;13.14;73.98
72308;BME280;60257;42.638;23.376;2023-05-25T03:10:47;94633.34;;;13.13;73.85
72308;BME280;60257;42.638;23.376;2023-05-25T03:13:12;94632.41;;;13.09;73.91
72308;BME280;60257;42.638;23.376;2023-05-25T03:15:38;94635.78;;;13.18;73.71
72308;BME280;60257;42.638;23.376;2023-05-25T03:18:05;94642.09;;;13.19;73.64
72308;BME280;60257;42.638;23.376;2023-05-25T03:20:30;94642.41;;;13.14;73.80
72308;BME280;60257;42.638;23.376;2023-05-25T03:22:57;94641.88;;;13.08;74.26
72308;BME280;60257;42.638;23.376;2023-05-25T03:25:23;94639.13;;;13.08;73.72
72308;BME280;60257;42.638;23.376;2023-05-25T03:27:52;94627.56;;;13.02;74.20
72308;BME280;60257;42.638;23.376;2023-05-25T03:30:21;94635.91;;;13.06;74.55
72308;BME280;60257;42.638;23.376;2023-05-25T03:32:47;94635.47;;;13.04;74.31
72308;BME280;60257;42.638;23.376;2023-05-25T03:35:12;94636.28;;;13.04;74.53
72308;BME280;60257;42.638;23.376;2023-05-25T03:37:38;94648.94;;;13.09;74.61
72308;BME280;60257;42.638;23.376;2023-05-25T03:40:04;94654.66;;;13.16;74.34
72308;BME280;60257;42.638;23.376;2023-05-25T03:42:30;94643.25;;;13.18;74.25
72308;BME280;60257;42.638;23.376;2023-05-25T03:44:55;94641.38;;;13.22;74.32
72308;BME280;60257;42.638;23.376;2023-05-25T03:47:21;94643.38;;;13.25;74.12
72308;BME280;60257;42.638;23.376;2023-05-25T03:49:46;94644.19;;;13.25;74.58
72308;BME280;60257;42.638;23.376;2023-05-25T03:52:12;94648.25;;;13.31;74.44
72308;BME280;60257;42.638;23.376;2023-05-25T03:54:37;94642.88;;;13.38;74.16
72308;BME280;60257;42.638;23.376;2023-05-25T03:57:03;94642.94;;;13.42;74.18
72308;BME280;60257;42.638;23.376;2023-05-25T03:59:29;94643.50;;;13.51;74.28
72308;BME280;60257;42.638;23.376;2023-05-25T04:01:55;94647.53;;;13.57;73.98
72308;BME280;60257;42.638;23.376;2023-05-25T04:04:20;94649.56;;;13.60;73.95
72308;BME280;60257;42.638;23.376;2023-05-25T04:06:46;94647.66;;;13.64;73.50
72308;BME280;60257;42.638;23.376;2023-05-25T04:09:13;94661.28;;;13.76;73.04
72308;BME280;60257;42.638;23.376;2023-05-25T04:11:39;94646.81;;;13.83;72.74
72308;BME280;60257;42.638;23.376;2023-05-25T04:14:04;94659.06;;;14.08;72.18
72308;BME280;60257;42.638;23.376;2023-05-25T04:16:30;94669.16;;;14.23;71.97
72308;BME280;60257;42.638;23.376;2023-05-25T04:18:56;94678.59;;;14.45;71.39
72308;BME280;60257;42.638;23.376;2023-05-25T04:21:21;94675.94;;;14.52;70.43
72308;BME280;60257;42.638;23.376;2023-05-25T04:23:47;94668.97;;;14.62;69.82
72308;BME280;60257;42.638;23.376;2023-05-25T04:26:12;94661.97;;;14.68;69.58
72308;BME280;60257;42.638;23.376;2023-05-25T04:28:40;94667.75;;;14.86;70.19
72308;BME280;60257;42.638;23.376;2023-05-25T04:31:06;94667.22;;;15.07;69.49
72308;BME280;60257;42.638;23.376;2023-05-25T04:33:32;94674.94;;;15.24;68.32
72308;BME280;60257;42.638;23.376;2023-05-25T04:35:59;94668.34;;;15.35;68.97
72308;BME280;60257;42.638;23.376;2023-05-25T04:38:25;94678.75;;;15.49;68.41
72308;BME280;60257;42.638;23.376;2023-05-25T04:40:51;94672.22;;;15.61;68.58
72308;BME280;60257;42.638;23.376;2023-05-25T04:43:22;94684.28;;;15.83;67.79
72308;BME280;60257;42.638;23.376;2023-05-25T04:45:51;94674.53;;;15.92;66.35
72308;BME280;60257;42.638;23.376;2023-05-25T04:48:17;94684.97;;;16.09;66.18
72308;BME280;60257;42.638;23.376;2023-05-25T04:50:42;94680.72;;;16.23;65.46
72308;BME280;60257;42.638;23.376;2023-05-25T04:53:08;94680.38;;;16.28;64.77
72308;BME280;60257;42.638;23.376;2023-05-25T04:55:33;94681.53;;;16.23;64.45
72308;BME280;60257;42.638;23.376;2023-05-25T04:58:00;94680.13;;;16.03;64.15
72308;BME280;60257;42.638;23.376;2023-05-25T05:00:26;94675.13;;;15.75;64.96
72308;BME280;60257;42.638;23.376;2023-05-25T05:02:53;94672.50;;;15.89;65.16
72308;BME280;60257;42.638;23.376;2023-05-25T05:05:21;94673.91;;;16.13;66.50
72308;BME280;60257;42.638;23.376;2023-05-25T05:07:46;94665.72;;;16.24;66.45
72308;BME280;60257;42.638;23.376;2023-05-25T05:10:12;94668.97;;;16.36;66.43
72308;BME280;60257;42.638;23.376;2023-05-25T05:12:38;94666.25;;;16.43;66.16
72308;BME280;60257;42.638;23.376;2023-05-25T05:15:04;94666.19;;;16.36;64.94
72308;BME280;60257;42.638;23.376;2023-05-25T05:17:29;94671.16;;;16.13;66.13
72308;BME280;60257;42.638;23.376;2023-05-25T05:19:55;94667.69;;;16.23;66.08
72308;BME280;60257;42.638;23.376;2023-05-25T05:22:21;94663.88;;;16.42;66.89
72308;BME280;60257;42.638;23.376;2023-05-25T05:24:46;94662.47;;;16.62;66.67
72308;BME280;60257;42.638;23.376;2023-05-25T05:27:12;94673.25;;;16.81;66.21
72308;BME280;60257;42.638;23.376;2023-05-25T05:29:39;94673.34;;;16.92;65.49
72308;BME280;60257;42.638;23.376;2023-05-25T05:32:05;94682.88;;;16.95;64.78
72308;BME280;60257;42.638;23.376;2023-05-25T05:34:31;94686.47;;;17.02;63.77
72308;BME280;60257;42.638;23.376;2023-05-25T05:36:57;94681.41;;;17.18;63.82
72308;BME280;60257;42.638;23.376;2023-05-25T05:39:25;94683.38;;;17.21;63.11
72308;BME280;60257;42.638;23.376;2023-05-25T05:41:51;94686.94;;;17.18;63.72
72308;BME280;60257;42.638;23.376;2023-05-25T05:44:17;94683.03;;;17.30;63.44
72308;BME280;60257;42.638;23.376;2023-05-25T05:46:42;94682.25;;;17.33;63.36
72308;BME280;60257;42.638;23.376;2023-05-25T05:49:08;94689.81;;;17.40;63.38
72308;BME280;60257;42.638;23.376;2023-05-25T05:51:33;94702.06;;;17.35;63.09
72308;BME280;60257;42.638;23.376;2023-05-25T05:53:59;94697.75;;;17.45;63.13
72308;BME280;60257;42.638;23.376;2023-05-25T05:56:24;94691.50;;;17.62;63.23
72308;BME280;60257;42.638;23.376;2023-05-25T05:58:51;94689.97;;;17.72;63.24
72308;BME280;60257;42.638;23.376;2023-05-25T06:01:18;94685.63;;;17.78;63.07
72308;BME280;60257;42.638;23.376;2023-05-25T06:03:44;94693.97;;;17.99;63.62
72308;BME280;60257;42.638;23.376;2023-05-25T06:06:10;94684.88;;;17.95;62.48
72308;BME280;60257;42.638;23.376;2023-05-25T06:08:36;94694.81;;;18.10;62.25
72308;BME280;60257;42.638;23.376;2023-05-25T06:11:01;94696.78;;;18.17;62.28
72308;BME280;60257;42.638;23.376;2023-05-25T06:13:27;94689.25;;;18.14;61.33
72308;BME280;60257;42.638;23.376;2023-05-25T06:15:52;94690.03;;;18.21;61.18
72308;BME280;60257;42.638;23.376;2023-05-25T06:18:18;94698.38;;;18.21;61.92
72308;BME280;60257;42.638;23.376;2023-05-25T06:20:43;94701.94;;;18.29;62.26
72308;BME280;60257;42.638;23.376;2023-05-25T06:23:09;94696.81;;;18.38;62.09
72308;BME280;60257;42.638;23.376;2023-05-25T06:25:36;94699.19;;;18.39;62.40
72308;BME280;60257;42.638;23.376;2023-05-25T06:28:02;94701.22;;;18.57;62.90
72308;BME280;60257;42.638;23.376;2023-05-25T06:30:27;94681.75;;;18.46;62.17
72308;BME280;60257;42.638;23.376;2023-05-25T06:32:53;94693.25;;;18.55;61.33
72308;BME280;60257;42.638;23.376;2023-05-25T06:35:18;94700.38;;;18.24;61.97
72308;BME280;60257;42.638;23.376;2023-05-25T06:37:45;94708.31;;;18.40;62.13
72308;BME280;60257;42.638;23.376;2023-05-25T06:40:11;94705.16;;;18.59;61.89
72308;BME280;60257;42.638;23.376;2023-05-25T06:42:37;94707.56;;;18.71;60.09
72308;BME280;60257;42.638;23.376;2023-05-25T06:45:03;94713.91;;;18.61;61.19
72308;BME280;60257;42.638;23.376;2023-05-25T06:47:29;94704.38;;;18.76;60.58
72308;BME280;60257;42.638;23.376;2023-05-25T06:49:54;94691.66;;;18.82;60.26
72308;BME280;60257;42.638;23.376;2023-05-25T06:52:20;94703.16;;;18.99;59.91
72308;BME280;60257;42.638;23.376;2023-05-25T06:54:46;94704.72;;;19.10;59.69
72308;BME280;60257;42.638;23.376;2023-05-25T06:57:11;94697.94;;;19.26;59.18
72308;BME280;60257;42.638;23.376;2023-05-25T06:59:37;94700.34;;;19.16;59.30
72308;BME280;60257;42.638;23.376;2023-05-25T07:02:02;94705.06;;;19.30;59.06
72308;BME280;60257;42.638;23.376;2023-05-25T07:04:28;94689.16;;;19.38;59.75
72308;BME280;60257;42.638;23.376;2023-05-25T07:06:53;94698.25;;;19.45;59.13
72308;BME280;60257;42.638;23.376;2023-05-25T07:09:19;94697.94;;;19.22;59.50
72308;BME280;60257;42.638;23.376;2023-05-25T07:11:44;94692.31;;;19.36;59.27
72308;BME280;60257;42.638;23.376;2023-05-25T07:14:10;94689.91;;;19.45;58.57
72308;BME280;60257;42.638;23.376;2023-05-25T07:16:36;94685.19;;;19.49;58.40
72308;BME280;60257;42.638;23.376;2023-05-25T07:19:01;94690.34;;;19.37;58.78
72308;BME280;60257;42.638;23.376;2023-05-25T07:21:30;94687.13;;;19.45;58.38
72308;BME280;60257;42.638;23.376;2023-05-25T07:23:57;94695.88;;;19.58;58.13
72308;BME280;60257;42.638;23.376;2023-05-25T07:26:23;94689.41;;;19.75;58.20
72308;BME280;60257;42.638;23.376;2023-05-25T07:28:50;94692.97;;;19.79;57.99
72308;BME280;60257;42.638;23.376;2023-05-25T07:31:15;94684.50;;;20.01;59.65
72308;BME280;60257;42.638;23.376;2023-05-25T07:33:42;94691.19;;;20.14;58.15
72308;BME280;60257;42.638;23.376;2023-05-25T07:36:07;94691.53;;;20.23;57.24
72308;BME280;60257;42.638;23.376;2023-05-25T07:38:34;94693.72;;;19.90;58.05
72308;BME280;60257;42.638;23.376;2023-05-25T07:40:59;94699.59;;;20.07;58.05
72308;BME280;60257;42.638;23.376;2023-05-25T07:43:26;94698.34;;;20.15;58.07
72308;BME280;60257;42.638;23.376;2023-05-25T07:45:51;94695.94;;;20.20;57.61
72308;BME280;60257;42.638;23.376;2023-05-25T07:48:18;94700.69;;;20.23;57.65
72308;BME280;60257;42.638;23.376;2023-05-25T07:50:43;94691.13;;;20.24;57.68
72308;BME280;60257;42.638;23.376;2023-05-25T07:53:09;94707.03;;;20.24;58.21
72308;BME280;60257;42.638;23.376;2023-05-25T07:55:34;94721.44;;;20.12;57.44
72308;BME280;60257;42.638;23.376;2023-05-25T07:58:00;94719.50;;;19.98;58.50
72308;BME280;60257;42.638;23.376;2023-05-25T08:00:26;94715.69;;;19.74;58.61
72308;BME280;60257;42.638;23.376;2023-05-25T08:02:51;94719.34;;;19.36;59.30
72308;BME280;60257;42.638;23.376;2023-05-25T08:05:17;94730.09;;;19.27;60.00
72308;BME280;60257;42.638;23.376;2023-05-25T08:07:43;94740.03;;;19.13;60.57
72308;BME280;60257;42.638;23.376;2023-05-25T08:10:09;94736.09;;;18.82;61.58
72308;BME280;60257;42.638;23.376;2023-05-25T08:12:35;94746.44;;;18.61;62.14
72308;BME280;60257;42.638;23.376;2023-05-25T08:15:01;94736.88;;;18.48;62.69
72308;BME280;60257;42.638;23.376;2023-05-25T08:17:26;94753.53;;;18.33;63.58
72308;BME280;60257;42.638;23.376;2023-05-25T08:19:53;94747.56;;;18.24;64.10
72308;BME280;60257;42.638;23.376;2023-05-25T08:22:20;94759.84;;;18.30;64.13
72308;BME280;60257;42.638;23.376;2023-05-25T08:24:45;94756.25;;;18.12;64.73
72308;BME280;60257;42.638;23.376;2023-05-25T08:27:11;94760.94;;;17.87;65.49
72308;BME280;60257;42.638;23.376;2023-05-25T08:29:36;94764.88;;;17.82;65.63
72308;BME280;60257;42.638;23.376;2023-05-25T08:32:02;94766.78;;;17.67;66.47
72308;BME280;60257;42.638;23.376;2023-05-25T08:34:27;94769.94;;;17.62;66.61
72308;BME280;60257;42.638;23.376;2023-05-25T08:36:55;94777.38;;;17.48;66.86
72308;BME280;60257;42.638;23.376;2023-05-25T08:39:21;94768.25;;;17.51;66.05
72308;BME280;60257;42.638;23.376;2023-05-25T08:41:48;94780.91;;;17.41;66.82
72308;BME280;60257;42.638;23.376;2023-05-25T08:44:14;94791.06;;;17.19;68.22
72308;BME280;60257;42.638;23.376;2023-05-25T08:46:40;94777.84;;;16.99;68.31
72308;BME280;60257;42.638;23.376;2023-05-25T08:49:13;94792.91;;;17.01;68.37
72308;BME280;60257;42.638;23.376;2023-05-25T08:51:57;94790.47;;;16.92;69.51
72308;BME280;60257;42.638;23.376;2023-05-25T08:54:34;94794.09;;;17.04;69.40
72308;BME280;60257;42.638;23.376;2023-05-25T08:57:06;94804.47;;;17.10;69.35
72308;BME280;60257;42.638;23.376;2023-05-25T08:59:41;94802.03;;;17.05;69.46
72308;BME280;60257;42.638;23.376;2023-05-25T09:04:52;94816.38;;;16.67;72.05
72308;BME280;60257;42.638;23.376;2023-05-25T09:07:18;94813.69;;;16.77;71.82
72308;BME280;60257;42.638;23.376;2023-05-25T09:09:44;94813.38;;;16.86;72.44
72308;BME280;60257;42.638;23.376;2023-05-25T09:12:11;94817.75;;;16.87;72.76
72308;BME280;60257;42.638;23.376;2023-05-25T09:14:37;94820.16;;;16.92;73.21
72308;BME280;60257;42.638;23.376;2023-05-25T09:17:13;94814.13;;;16.79;73.51
72308;BME280;60257;42.638;23.376;2023-05-25T09:19:39;94823.28;;;16.87;74.37
72308;BME280;60257;42.638;23.376;2023-05-25T09:22:05;94816.97;;;16.49;74.12
72308;BME280;60257;42.638;23.376;2023-05-25T09:24:32;94815.25;;;16.71;72.69
72308;BME280;60257;42.638;23.376;2023-05-25T09:26:58;94806.19;;;16.78;73.97
72308;BME280;60257;42.638;23.376;2023-05-25T09:29:25;94804.78;;;16.58;74.53
72308;BME280;60257;42.638;23.376;2023-05-25T09:31:50;94807.47;;;16.50;75.51
72308;BME280;60257;42.638;23.376;2023-05-25T09:34:16;94807.03;;;16.45;77.38
72308;BME280;60257;42.638;23.376;2023-05-25T09:36:42;94801.44;;;16.38;75.73
72308;BME280;60257;42.638;23.376;2023-05-25T09:39:11;94796.41;;;16.50;76.00
72308;BME280;60257;42.638;23.376;2023-05-25T09:41:39;94797.44;;;16.72;72.65
72308;BME280;60257;42.638;23.376;2023-05-25T09:44:05;94793.03;;;16.68;73.10
72308;BME280;60257;42.638;23.376;2023-05-25T09:46:32;94784.19;;;16.99;72.94
72308;BME280;60257;42.638;23.376;2023-05-25T09:49:05;94789.03;;;17.09;70.82
72308;BME280;60257;42.638;23.376;2023-05-25T09:51:32;94783.81;;;17.04;71.04
72308;BME280;60257;42.638;23.376;2023-05-25T09:54:02;94781.22;;;17.25;72.11
72308;BME280;60257;42.638;23.376;2023-05-25T09:56:30;94777.75;;;17.46;73.86
72308;BME280;60257;42.638;23.376;2023-05-25T09:58:56;94758.69;;;17.38;74.02
72308;BME280;60257;42.638;23.376;2023-05-25T10:01:22;94768.72;;;17.56;74.25
72308;BME280;60257;42.638;23.376;2023-05-25T10:03:48;94765.28;;;17.81;72.88
72308;BME280;60257;42.638;23.376;2023-05-25T10:06:18;94755.78;;;17.85;72.74
72308;BME280;60257;42.638;23.376;2023-05-25T10:08:43;94766.63;;;18.33;71.86
72308;BME280;60257;42.638;23.376;2023-05-25T10:11:12;94762.31;;;18.85;71.36
72308;BME280;60257;42.638;23.376;2023-05-25T10:13:39;94769.38;;;19.36;68.95
72308;BME280;60257;42.638;23.376;2023-05-25T10:16:08;94760.63;;;19.66;66.22
72308;BME280;60257;42.638;23.376;2023-05-25T10:18:46;94751.00;;;19.88;66.39
72308;BME280;60257;42.638;23.376;2023-05-25T10:21:15;94749.16;;;20.29;65.79
72308;BME280;60257;42.638;23.376;2023-05-25T10:23:46;94740.38;;;20.42;64.54
72308;BME280;60257;42.638;23.376;2023-05-25T10:26:18;94737.09;;;20.54;64.45
72308;BME280;60257;42.638;23.376;2023-05-25T10:28:50;94737.44;;;19.90;66.21
72308;BME280;60257;42.638;23.376;2023-05-25T10:31:17;94731.25;;;20.38;64.85
72308;BME280;60257;42.638;23.376;2023-05-25T10:33:43;94732.38;;;20.51;64.00
72308;BME280;60257;42.638;23.376;2023-05-25T10:36:10;94724.81;;;20.44;64.40
72308;BME280;60257;42.638;23.376;2023-05-25T10:38:40;94721.00;;;20.17;63.05
72308;BME280;60257;42.638;23.376;2023-05-25T10:41:09;94721.59;;;20.53;62.40
72308;BME280;60257;42.638;23.376;2023-05-25T10:43:37;94711.16;;;20.64;61.13
72308;BME280;60257;42.638;23.376;2023-05-25T10:46:06;94710.75;;;20.65;60.51
72308;BME280;60257;42.638;23.376;2023-05-25T10:48:38;94707.88;;;20.76;60.77
72308;BME280;60257;42.638;23.376;2023-05-25T10:51:05;94711.94;;;20.02;62.39
72308;BME280;60257;42.638;23.376;2023-05-25T10:53:31;94704.88;;;19.83;64.04
72308;BME280;60257;42.638;23.376;2023-05-25T10:56:04;94696.78;;;20.10;63.42
72308;BME280;60257;42.638;23.376;2023-05-25T10:58:32;94697.50;;;20.25;63.26
72308;BME280;60257;42.638;23.376;2023-05-25T11:01:05;94693.03;;;20.38;61.07
72308;BME280;60257;42.638;23.376;2023-05-25T11:06:09;94695.81;;;20.42;60.16
72308;BME280;60257;42.638;23.376;2023-05-25T11:08:53;94685.81;;;20.44;60.52
72308;BME280;60257;42.638;23.376;2023-05-25T11:11:18;94687.00;;;20.47;58.78
72308;BME280;60257;42.638;23.376;2023-05-25T11:13:45;94700.06;;;19.94;59.42
72308;BME280;60257;42.638;23.376;2023-05-25T11:18:41;94697.09;;;20.26;60.00
72308;BME280;60257;42.638;23.376;2023-05-25T11:23:57;94687.50;;;20.31;60.07
72308;BME280;60257;42.638;23.376;2023-05-25T11:26:27;94677.16;;;20.35;60.55
72308;BME280;60257;42.638;23.376;2023-05-25T11:28:54;94691.97;;;20.14;61.57
72308;BME280;60257;42.638;23.376;2023-05-25T11:31:31;94685.31;;;20.01;60.92
72308;BME280;60257;42.638;23.376;2023-05-25T11:34:01;94688.28;;;20.39;60.58
72308;BME280;60257;42.638;23.376;2023-05-25T11:36:27;94691.13;;;20.28;61.20
72308;BME280;60257;42.638;23.376;2023-05-25T11:38:56;94693.50;;;20.22;60.59
72308;BME280;60257;42.638;23.376;2023-05-25T11:41:26;94689.25;;;20.07;61.32
72308;BME280;60257;42.638;23.376;2023-05-25T11:43:52;94690.38;;;20.20;59.15
72308;BME280;60257;42.638;23.376;2023-05-25T11:46:19;94687.09;;;20.36;58.63
72308;BME280;60257;42.638;23.376;2023-05-25T11:48:53;94686.34;;;20.28;58.83
72308;BME280;60257;42.638;23.376;2023-05-25T11:51:21;94680.72;;;20.32;58.27
72308;BME280;60257;42.638;23.376;2023-05-25T11:53:47;94679.53;;;20.33;59.20
72308;BME280;60257;42.638;23.376;2023-05-25T11:56:14;94683.53;;;20.35;58.20
72308;BME280;60257;42.638;23.376;2023-05-25T11:58:40;94682.31;;;20.33;56.79
72308;BME280;60257;42.638;23.376;2023-05-25T12:03:41;94692.41;;;20.09;57.93
72308;BME280;60257;42.638;23.376;2023-05-25T12:06:06;94671.38;;;20.01;58.33
72308;BME280;60257;42.638;23.376;2023-05-25T12:08:33;94684.69;;;19.69;58.73
72308;BME280;60257;42.638;23.376;2023-05-25T12:10:59;94684.25;;;19.81;58.75
72308;BME280;60257;42.638;23.376;2023-05-25T12:13:24;94689.09;;;19.66;57.66
72308;BME280;60257;42.638;23.376;2023-05-25T12:15:53;94684.31;;;19.63;57.07
72308;BME280;60257;42.638;23.376;2023-05-25T12:18:19;94674.84;;;19.50;57.68
72308;BME280;60257;42.638;23.376;2023-05-25T12:20:45;94672.41;;;19.63;57.84
72308;BME280;60257;42.638;23.376;2023-05-25T12:23:11;94670.00;;;19.61;56.98
72308;BME280;60257;42.638;23.376;2023-05-25T12:25:36;94670.38;;;19.70;57.37
72308;BME280;60257;42.638;23.376;2023-05-25T12:28:13;94664.31;;;19.86;56.55
72308;BME280;60257;42.638;23.376;2023-05-25T12:30:39;94652.78;;;19.87;56.41
72308;BME280;60257;42.638;23.376;2023-05-25T12:33:05;94646.88;;;19.78;56.44
72308;BME280;60257;42.638;23.376;2023-05-25T12:35:45;94640.06;;;19.83;56.79
72308;BME280;60257;42.638;23.376;2023-05-25T12:38:13;94639.97;;;20.01;55.61
72308;BME280;60257;42.638;23.376;2023-05-25T12:40:40;94635.97;;;20.05;56.57
72308;BME280;60257;42.638;23.376;2023-05-25T12:43:05;94638.03;;;19.94;55.87
72308;BME280;60257;42.638;23.376;2023-05-25T12:45:31;94637.28;;;19.86;57.71
72308;BME280;60257;42.638;23.376;2023-05-25T12:47:57;94620.59;;;19.86;58.06
72308;BME280;60257;42.638;23.376;2023-05-25T12:50:22;94626.00;;;20.11;55.59
72308;BME280;60257;42.638;23.376;2023-05-25T12:52:49;94611.69;;;20.06;55.09
72308;BME280;60257;42.638;23.376;2023-05-25T12:57:47;94612.88;;;20.12;54.29
72308;BME280;60257;42.638;23.376;2023-05-25T13:00:21;94606.84;;;20.17;54.12
72308;BME280;60257;42.638;23.376;2023-05-25T13:02:48;94605.94;;;20.34;53.44
72308;BME280;60257;42.638;23.376;2023-05-25T13:05:18;94559.13;;;20.18;53.49
72308;BME280;60257;42.638;23.376;2023-05-25T13:07:44;94589.84;;;20.52;51.46
72308;BME280;60257;42.638;23.376;2023-05-25T13:10:11;94585.47;;;20.55;51.44
72308;BME280;60257;42.638;23.376;2023-05-25T13:12:37;94585.28;;;20.72;51.66